Hauptseite
METAR-TAF:

METAR-TAF

Flughäfen :

Fort-de-France, Martinique

Flughafen Martinique

Breite: 14-36N, Länge: 061-00W, Höhe: 5 m

Beobachtung

Neuester Wetterbericht von vor 5 Minuten, um 01:30 UTC
Wind 6 kt aus Ost
Temperatur 25°C
Luftfeuchtigkeit 83%
Luftdruck 1015 hPa
Sichtweite 10 km oder mehr

METAR: TFFF 190130Z AUTO 10006KT 9999 FEW029/// 25/22 Q1015 TEMPO 4000 SHRA SCT015TCU

Zeit: 21:35 (01:35 UTC)

Prognose

Neuester Wetterbericht von vor 2 Stunden und 35 Minuten, um 23:00 UTC
Gültige Prognose vom 19 um 00 UTC bis 19 um 24 UTC
Wind 10 kt aus Ost
Sichtweite 10 km oder mehr
Aufgelockert bewölkt in der Höhe von 2500 ft
Zeitweise
vom 19 um 03 UTC bis 19 um 21 UTC
Sichtweite: 4000 m
Aufgelockert bewölkt in der Höhe von 1500 ft, Towering cumulus.
Regenschauer

TAF: TFFF 182300Z 1900/1924 10010KT 9999 SCT025 TEMPO 1903/1921 4000 SHRA SCT015TCU

Wetterbeobachtungen und Prognosen von mehr als 4000 Flughäfen (METAR und TAF Bericht).

Die verfügbaren Stationen werden durch gelbe und rote Markierungen auf der Karte dargestellt.

Führen Sie die Maus auf sie, um den Namen der Station zu sehen.

Darauf klicken, um die Beobachtung von Wetterbeobachtungen und Prognosen zu sehen.

Um die Karte zu ändern : klicken Sie auf den grünen Tasten mit einem schwarzen Kreuz Zum Vergrößern, auf den grünen Button mit einem Gedankenstrich zu verkleinern, oder auf die grünen Pfeile für benachbarte Karten.


METAR-TAF: